createdAt,value
2018-12-16T00:00:45.988Z,24.70
2018-12-16T00:01:45.959Z,23.50
2018-12-16T00:02:45.937Z,26.80
2018-12-16T00:03:45.904Z,26.00
2018-12-16T00:04:49.926Z,26.10
2018-12-16T00:05:45.843Z,23.80
2018-12-16T00:06:45.829Z,25.60
2018-12-16T00:07:45.978Z,28.00
2018-12-16T00:08:45.792Z,29.60
2018-12-16T00:09:45.754Z,26.80
2018-12-16T00:10:45.716Z,28.80
2018-12-16T00:11:45.658Z,24.80
2018-12-16T00:12:45.635Z,25.30
2018-12-16T00:13:45.867Z,26.90
2018-12-16T00:14:45.571Z,24.90
2018-12-16T00:15:45.543Z,26.90
2018-12-16T00:16:45.537Z,25.90
2018-12-16T00:17:45.811Z,28.50
2018-12-16T00:18:45.454Z,27.60
2018-12-16T00:19:45.420Z,32.90
2018-12-16T00:20:45.730Z,23.30
2018-12-16T00:21:45.358Z,25.70
2018-12-16T00:22:45.333Z,29.00
2018-12-16T00:23:47.067Z,28.00
2018-12-16T00:24:45.301Z,30.80
2018-12-16T00:25:45.983Z,28.00
2018-12-16T00:26:45.542Z,23.50
2018-12-16T00:27:45.512Z,29.40
2018-12-16T00:28:45.181Z,28.10
2018-12-16T00:29:45.449Z,26.50
2018-12-16T00:30:45.306Z,30.90
2018-12-16T00:31:45.060Z,28.50
2018-12-16T00:32:45.033Z,29.50
2018-12-16T00:33:45.533Z,25.50
2018-12-16T00:35:44.975Z,23.50
2018-12-16T00:36:44.917Z,27.50
2018-12-16T00:37:45.825Z,25.20
2018-12-16T00:38:44.856Z,29.10
2018-12-16T00:39:44.868Z,24.80
2018-12-16T00:40:44.802Z,28.30
2018-12-16T00:41:44.774Z,24.70
2018-12-16T00:42:44.743Z,26.60
2018-12-16T00:43:44.707Z,28.10
2018-12-16T00:44:44.696Z,24.90
2018-12-16T00:45:44.963Z,26.50
2018-12-16T00:46:44.615Z,27.70
2018-12-16T00:47:44.585Z,27.10
2018-12-16T00:48:44.565Z,27.80
2018-12-16T00:49:45.466Z,24.70
2018-12-16T00:50:44.497Z,27.00
2018-12-16T00:51:44.470Z,24.60
2018-12-16T00:52:44.457Z,24.30
2018-12-16T00:53:44.943Z,25.90
2018-12-16T00:54:44.428Z,27.90
2018-12-16T00:55:44.367Z,27.50
2018-12-16T00:56:44.333Z,26.40
2018-12-16T00:57:44.294Z,25.00
2018-12-16T00:58:44.268Z,22.60
2018-12-16T00:59:44.229Z,26.00
2018-12-16T01:00:44.209Z,24.40
2018-12-16T01:01:44.181Z,26.30
2018-12-16T01:02:44.370Z,26.70
2018-12-16T01:03:44.441Z,26.80
2018-12-16T01:04:44.835Z,26.00
2018-12-16T01:05:44.072Z,25.10
2018-12-16T01:06:44.055Z,22.90
2018-12-16T01:07:43.991Z,27.10
2018-12-16T01:08:43.985Z,24.60
2018-12-16T01:09:43.962Z,28.90
2018-12-16T01:10:43.908Z,28.20
2018-12-16T01:11:44.506Z,25.70
2018-12-16T01:12:43.859Z,28.00
2018-12-16T01:13:43.839Z,21.70
2018-12-16T01:14:43.812Z,21.80
2018-12-16T01:15:43.755Z,22.70
2018-12-16T01:16:44.061Z,23.30
2018-12-16T01:17:43.720Z,23.60
2018-12-16T01:18:43.677Z,26.70
2018-12-16T01:19:43.646Z,24.40
2018-12-16T01:20:43.736Z,23.40
2018-12-16T01:21:43.792Z,22.80
2018-12-16T01:22:43.832Z,25.70
2018-12-16T01:23:43.836Z,24.90
2018-12-16T01:24:43.703Z,25.90
2018-12-16T01:25:43.461Z,26.00
2018-12-16T01:26:43.459Z,26.00
2018-12-16T01:27:43.437Z,25.50
2018-12-16T01:28:43.384Z,21.90
2018-12-16T01:29:43.343Z,23.40
2018-12-16T01:30:43.633Z,23.60
2018-12-16T01:31:43.614Z,25.10
2018-12-16T01:32:43.591Z,24.50
2018-12-16T01:33:43.226Z,24.30
2018-12-16T01:35:43.485Z,22.90
2018-12-16T01:36:43.161Z,22.70
2018-12-16T01:37:43.443Z,26.20
2018-12-16T01:38:43.109Z,23.60
2018-12-16T01:39:43.062Z,25.00
2018-12-16T01:40:43.027Z,22.80
2018-12-16T01:41:42.991Z,25.50
2018-12-16T01:42:42.960Z,25.10
2018-12-16T01:43:42.931Z,23.90
2018-12-16T01:44:42.899Z,21.70
2018-12-16T01:46:43.163Z,25.00
2018-12-16T01:47:43.019Z,24.60
2018-12-16T01:48:42.986Z,23.60
2018-12-16T01:49:42.759Z,25.30
2018-12-16T01:50:43.060Z,23.90
2018-12-16T01:51:43.014Z,23.30
2018-12-16T01:52:49.976Z,22.10
2018-12-16T01:53:42.636Z,24.90
2018-12-16T01:54:42.932Z,24.90
2018-12-16T01:55:42.607Z,22.80
2018-12-16T01:56:42.551Z,23.40
2018-12-16T01:57:45.635Z,25.40
2018-12-16T01:58:42.496Z,23.00
2018-12-16T01:59:42.461Z,24.10
2018-12-16T02:00:42.441Z,23.70
2018-12-16T02:01:42.402Z,22.70
2018-12-16T02:02:42.380Z,22.50
2018-12-16T02:03:42.345Z,25.00
2018-12-16T02:04:42.316Z,22.90
2018-12-16T02:05:42.292Z,23.30
2018-12-16T02:06:42.468Z,23.90
2018-12-16T02:07:42.254Z,23.30
2018-12-16T02:08:42.528Z,21.00
2018-12-16T02:09:42.211Z,24.90
2018-12-16T02:10:42.458Z,23.50
2018-12-16T02:11:42.129Z,21.40
2018-12-16T02:12:42.121Z,24.20
2018-12-16T02:13:42.073Z,27.10
2018-12-16T02:14:42.351Z,25.30
2018-12-16T02:15:42.530Z,23.30
2018-12-16T02:16:42.572Z,23.50
2018-12-16T02:17:42.542Z,24.20
2018-12-16T02:18:42.215Z,24.50
2018-12-16T02:19:41.878Z,25.00
2018-12-16T02:20:41.851Z,23.70
2018-12-16T02:21:41.824Z,22.30
2018-12-16T02:22:42.403Z,28.10
2018-12-16T02:23:41.757Z,23.80
2018-12-16T02:24:41.735Z,23.40
2018-12-16T02:25:41.696Z,24.40
2018-12-16T02:26:41.691Z,23.60
2018-12-16T02:27:42.375Z,23.10
2018-12-16T02:28:41.821Z,24.90
2018-12-16T02:29:42.303Z,25.70
2018-12-16T02:30:41.574Z,22.20
2018-12-16T02:31:41.822Z,24.50
2018-12-16T02:32:41.493Z,27.00
2018-12-16T02:33:41.488Z,23.40
2018-12-16T02:34:41.444Z,26.60
2018-12-16T02:35:41.409Z,23.70
2018-12-16T02:36:41.385Z,24.80
2018-12-16T02:37:41.551Z,24.30
2018-12-16T02:38:41.315Z,23.70
2018-12-16T02:39:41.303Z,22.80
2018-12-16T02:40:41.759Z,24.20
2018-12-16T02:41:41.259Z,24.50
2018-12-16T02:42:41.197Z,21.80
2018-12-16T02:43:41.168Z,24.80
2018-12-16T02:44:41.167Z,24.70
2018-12-16T02:45:41.724Z,24.40
2018-12-16T02:46:41.397Z,24.30
2018-12-16T02:47:41.371Z,24.10
2018-12-16T02:48:41.020Z,24.10
2018-12-16T02:49:41.329Z,21.40
2018-12-16T02:50:40.973Z,19.50
2018-12-16T02:51:41.270Z,21.60
2018-12-16T02:52:40.904Z,21.70
2018-12-16T02:53:40.902Z,24.60
2018-12-16T02:54:40.854Z,24.50
2018-12-16T02:55:41.155Z,23.60
2018-12-16T02:56:40.802Z,25.00
2018-12-16T02:57:40.758Z,25.20
2018-12-16T02:58:40.763Z,22.30
2018-12-16T02:59:40.699Z,24.90
2018-12-16T03:00:40.671Z,27.10
2018-12-16T03:01:40.640Z,25.70
2018-12-16T03:02:40.614Z,24.10
2018-12-16T03:03:40.798Z,23.00
2018-12-16T03:04:40.553Z,22.10
2018-12-16T03:05:40.522Z,24.20
2018-12-16T03:06:40.539Z,23.70
2018-12-16T03:07:40.988Z,25.70
2018-12-16T03:08:40.745Z,26.60
2018-12-16T03:09:41.348Z,26.60
2018-12-16T03:10:40.377Z,23.80
2018-12-16T03:11:40.572Z,22.90
2018-12-16T03:12:40.322Z,24.40
2018-12-16T03:13:40.314Z,23.80
2018-12-16T03:14:40.965Z,23.80
2018-12-16T03:15:40.462Z,22.10
2018-12-16T03:16:40.513Z,24.50
2018-12-16T03:17:40.524Z,22.70
2018-12-16T03:18:40.143Z,23.70
2018-12-16T03:19:40.116Z,23.00
2018-12-16T03:20:40.081Z,22.70
2018-12-16T03:21:40.061Z,21.80
2018-12-16T03:22:40.032Z,24.30
2018-12-16T03:23:39.994Z,24.10
2018-12-16T03:24:39.973Z,22.70
2018-12-16T03:25:39.935Z,22.40
2018-12-16T03:26:39.905Z,23.40
2018-12-16T03:27:39.904Z,24.30
2018-12-16T03:28:39.879Z,20.40
2018-12-16T03:29:39.858Z,24.10
2018-12-16T03:30:39.789Z,23.50
2018-12-16T03:31:40.077Z,24.00
2018-12-16T03:32:40.067Z,20.20
2018-12-16T03:33:39.699Z,22.80
2018-12-16T03:34:39.699Z,24.20
2018-12-16T03:35:39.686Z,22.40
2018-12-16T03:36:40.129Z,23.80
2018-12-16T03:37:39.893Z,20.00
2018-12-16T03:38:40.093Z,25.90
2018-12-16T03:39:39.555Z,24.60
2018-12-16T03:40:39.808Z,22.20
2018-12-16T03:41:39.472Z,21.50
2018-12-16T03:42:39.445Z,23.50
2018-12-16T03:43:39.406Z,22.20
2018-12-16T03:44:39.609Z,20.70
2018-12-16T03:45:39.661Z,24.00
2018-12-16T03:46:39.634Z,22.70
2018-12-16T03:47:39.315Z,21.20
2018-12-16T03:48:39.908Z,19.80
2018-12-16T03:49:39.873Z,24.50
2018-12-16T03:50:39.234Z,23.80
2018-12-16T03:51:39.179Z,21.30
2018-12-16T03:52:39.344Z,23.00
2018-12-16T03:53:39.431Z,22.20
2018-12-16T03:54:39.085Z,23.40
2018-12-16T03:55:39.060Z,21.80
2018-12-16T03:56:39.035Z,24.10
2018-12-16T03:57:38.997Z,23.10
2018-12-16T03:58:38.990Z,22.40
2018-12-16T03:59:38.939Z,23.70
2018-12-16T04:00:38.943Z,20.50
2018-12-16T04:01:38.879Z,24.10
2018-12-16T04:02:38.858Z,24.80
2018-12-16T04:03:38.821Z,22.40
2018-12-16T04:04:38.793Z,23.40
2018-12-16T04:05:38.968Z,24.30
2018-12-16T04:06:38.736Z,19.20
2018-12-16T04:07:38.705Z,22.40
2018-12-16T04:08:38.706Z,24.50
2018-12-16T04:09:38.975Z,22.90
2018-12-16T04:10:38.638Z,23.60
2018-12-16T04:11:38.903Z,24.00
2018-12-16T04:12:38.589Z,24.50
2018-12-16T04:13:38.870Z,24.30
2018-12-16T04:14:38.502Z,21.50
2018-12-16T04:15:38.509Z,23.10
2018-12-16T04:16:38.782Z,23.60
2018-12-16T04:17:38.743Z,24.10
2018-12-16T04:19:38.371Z,22.70
2018-12-16T04:21:38.298Z,25.30
2018-12-16T04:22:38.278Z,23.90
2018-12-16T04:23:38.252Z,28.30
2018-12-16T04:24:38.211Z,26.90
2018-12-16T04:25:38.199Z,25.10
2018-12-16T04:26:38.163Z,23.80
2018-12-16T04:27:38.203Z,25.30
2018-12-16T04:28:38.417Z,25.20
2018-12-16T04:29:38.102Z,23.10
2018-12-16T04:30:38.041Z,24.90
2018-12-16T04:31:38.335Z,23.80
2018-12-16T04:32:37.996Z,25.70
2018-12-16T04:33:37.973Z,25.70
2018-12-16T04:34:38.856Z,24.90
2018-12-16T04:35:38.211Z,25.20
2018-12-16T04:36:38.389Z,24.50
2018-12-16T04:37:38.769Z,27.20
2018-12-16T04:38:38.057Z,25.30
2018-12-16T04:39:37.775Z,25.50
2018-12-16T04:40:37.754Z,25.70
2018-12-16T04:41:37.722Z,27.60
2018-12-16T04:43:37.660Z,23.40
2018-12-16T04:44:37.631Z,25.30
2018-12-16T04:45:37.610Z,24.50
2018-12-16T04:46:37.574Z,26.20
2018-12-16T04:47:37.544Z,25.60
2018-12-16T04:48:37.515Z,26.00
2018-12-16T04:49:37.814Z,27.70
2018-12-16T04:50:37.459Z,28.20
2018-12-16T04:51:37.747Z,26.70
2018-12-16T04:52:37.732Z,24.60
2018-12-16T04:53:37.379Z,28.80
2018-12-16T04:54:37.343Z,26.30
2018-12-16T04:55:37.316Z,27.10
2018-12-16T04:56:37.288Z,26.90
2018-12-16T04:57:37.256Z,30.20
2018-12-16T04:58:37.226Z,27.40
2018-12-16T04:59:37.199Z,24.70
2018-12-16T05:00:37.170Z,25.80
2018-12-16T05:01:37.141Z,29.80
2018-12-16T05:02:37.112Z,27.80
2018-12-16T05:03:37.083Z,27.50
2018-12-16T05:04:37.054Z,27.90
2018-12-16T05:05:37.035Z,26.80
2018-12-16T05:06:36.998Z,26.70
2018-12-16T05:07:36.968Z,27.50
2018-12-16T05:08:36.939Z,29.50
2018-12-16T05:09:36.915Z,26.20
2018-12-16T05:10:36.881Z,29.60
2018-12-16T05:11:36.919Z,32.70
2018-12-16T05:12:36.823Z,27.30
2018-12-16T05:13:36.793Z,26.90
2018-12-16T05:14:36.766Z,30.00
2018-12-16T05:15:36.735Z,27.90
2018-12-16T05:16:36.715Z,29.40
2018-12-16T05:17:36.679Z,25.80
2018-12-16T05:18:36.650Z,27.70
2018-12-16T05:19:36.620Z,30.20
2018-12-16T05:20:36.593Z,28.10
2018-12-16T05:21:36.568Z,28.00
2018-12-16T05:22:36.535Z,29.60
2018-12-16T05:23:41.911Z,30.70
2018-12-16T05:24:36.475Z,30.30
2018-12-16T05:25:36.455Z,32.10
2018-12-16T05:26:36.424Z,27.50
2018-12-16T05:27:36.388Z,32.10
2018-12-16T05:28:36.362Z,32.10
2018-12-16T05:29:36.330Z,31.50
2018-12-16T05:30:36.304Z,29.90
2018-12-16T05:31:36.593Z,31.10
2018-12-16T05:32:36.245Z,31.40
2018-12-16T05:33:36.222Z,31.90
2018-12-16T05:34:36.192Z,30.90
2018-12-16T05:35:36.156Z,31.80
2018-12-16T05:36:36.129Z,32.90
2018-12-16T05:37:36.099Z,33.30
2018-12-16T05:38:36.070Z,31.60
2018-12-16T05:39:36.041Z,31.80
2018-12-16T05:40:36.013Z,33.90
2018-12-16T05:41:35.990Z,36.30
2018-12-16T05:42:35.954Z,34.30
2018-12-16T05:43:35.924Z,35.10
2018-12-16T05:44:35.894Z,34.50
2018-12-16T05:45:35.865Z,32.50
2018-12-16T05:46:35.837Z,35.30
2018-12-16T05:47:35.808Z,34.00
2018-12-16T05:48:35.779Z,34.70
2018-12-16T05:49:35.750Z,35.90
2018-12-16T05:50:35.721Z,38.40
2018-12-16T05:51:35.694Z,36.20
2018-12-16T05:52:35.664Z,36.70
2018-12-16T05:53:35.709Z,38.10
2018-12-16T05:54:35.606Z,33.70
2018-12-16T05:55:35.574Z,38.80
2018-12-16T05:56:35.545Z,34.90
2018-12-16T05:57:35.517Z,38.30
2018-12-16T05:58:35.487Z,37.80
2018-12-16T05:59:35.465Z,36.00
2018-12-16T06:00:35.431Z,39.50
2018-12-16T06:01:35.401Z,41.90
2018-12-16T06:02:35.373Z,38.70
2018-12-16T06:03:35.342Z,38.30
2018-12-16T06:04:35.314Z,39.40
2018-12-16T06:05:35.283Z,38.70
2018-12-16T06:06:35.255Z,37.30
2018-12-16T06:07:35.224Z,39.80
2018-12-16T06:08:35.201Z,36.70
2018-12-16T06:09:35.167Z,35.50
2018-12-16T06:10:35.138Z,38.80
2018-12-16T06:11:35.107Z,38.50
2018-12-16T06:12:35.087Z,42.10
2018-12-16T06:13:35.051Z,39.40
2018-12-16T06:14:35.020Z,37.70
2018-12-16T06:15:34.990Z,43.90
2018-12-16T06:16:35.766Z,38.50
2018-12-16T06:17:34.939Z,38.90
2018-12-16T06:18:34.904Z,42.50
2018-12-16T06:19:34.873Z,38.60
2018-12-16T06:20:34.843Z,38.50
2018-12-16T06:21:34.815Z,42.00
2018-12-16T06:22:34.787Z,38.30
2018-12-16T06:23:34.762Z,39.60
2018-12-16T06:24:34.727Z,36.80
2018-12-16T06:25:34.722Z,39.30
2018-12-16T06:26:34.670Z,40.20
2018-12-16T06:27:34.641Z,40.40
2018-12-16T06:28:34.610Z,43.60
2018-12-16T06:29:34.590Z,39.00
2018-12-16T06:30:34.552Z,40.10
2018-12-16T06:31:34.523Z,36.50
2018-12-16T06:32:34.503Z,38.80
2018-12-16T06:33:34.465Z,36.00
2018-12-16T06:34:34.435Z,38.80
2018-12-16T06:35:34.403Z,41.40
2018-12-16T06:36:34.387Z,36.60
2018-12-16T06:37:34.347Z,40.00
2018-12-16T06:38:34.318Z,40.50
2018-12-16T06:39:34.288Z,38.20
2018-12-16T06:40:34.259Z,42.00
2018-12-16T06:41:34.239Z,35.90
2018-12-16T06:42:34.207Z,36.60
2018-12-16T06:43:34.172Z,39.30
2018-12-16T06:44:34.142Z,37.60
2018-12-16T06:45:34.121Z,39.20
2018-12-16T06:46:34.086Z,36.40
2018-12-16T06:47:34.054Z,39.10
2018-12-16T06:48:34.034Z,36.20
2018-12-16T06:49:34.004Z,35.10
2018-12-16T06:50:33.966Z,39.10
2018-12-16T06:51:33.936Z,38.70
2018-12-16T06:52:33.907Z,38.20
2018-12-16T06:53:33.879Z,43.90
2018-12-16T06:54:33.852Z,37.40
2018-12-16T06:55:33.819Z,35.90
2018-12-16T06:56:33.793Z,35.40
2018-12-16T06:57:33.770Z,38.70
2018-12-16T06:58:33.731Z,38.60
2018-12-16T06:59:33.702Z,36.80
2018-12-16T07:00:33.673Z,35.20
2018-12-16T07:01:33.645Z,34.20
2018-12-16T07:02:33.615Z,34.40
2018-12-16T07:03:33.592Z,35.50
2018-12-16T07:04:33.566Z,35.10
2018-12-16T07:05:33.527Z,37.10
2018-12-16T07:06:33.502Z,36.40
2018-12-16T07:07:33.518Z,41.10
2018-12-16T07:08:33.438Z,36.70
2018-12-16T07:09:33.410Z,38.00
2018-12-16T07:10:33.386Z,34.50
2018-12-16T07:11:33.354Z,34.30
2018-12-16T07:12:33.321Z,31.50
2018-12-16T07:13:33.294Z,36.70
2018-12-16T07:14:33.263Z,37.50
2018-12-16T07:15:33.237Z,36.80
2018-12-16T07:16:33.220Z,41.70
2018-12-16T07:17:33.180Z,35.60
2018-12-16T07:18:33.146Z,37.20
2018-12-16T07:19:33.116Z,35.10
2018-12-16T07:20:33.098Z,33.90
2018-12-16T07:21:33.056Z,37.00
2018-12-16T07:22:33.029Z,36.80
2018-12-16T07:23:33.007Z,40.20
2018-12-16T07:24:32.985Z,37.70
2018-12-16T07:25:32.943Z,38.90
2018-12-16T07:26:32.921Z,37.10
2018-12-16T07:27:32.881Z,36.30
2018-12-16T07:28:32.851Z,39.30
2018-12-16T07:29:32.824Z,37.90
2018-12-16T07:30:32.793Z,37.10
2018-12-16T07:31:32.774Z,40.40
2018-12-16T07:32:32.742Z,41.30
2018-12-16T07:33:32.714Z,37.60
2018-12-16T07:34:32.676Z,39.40
2018-12-16T07:35:32.647Z,42.00
2018-12-16T07:36:32.639Z,39.30
2018-12-16T07:37:32.602Z,40.80
2018-12-16T07:38:32.562Z,37.40
2018-12-16T07:39:32.531Z,38.60
2018-12-16T07:40:32.539Z,39.40
2018-12-16T07:41:32.489Z,38.20
2018-12-16T07:42:32.449Z,37.30
2018-12-16T07:43:32.423Z,40.10
2018-12-16T07:44:32.422Z,40.70
2018-12-16T07:45:32.356Z,41.10
2018-12-16T07:46:32.326Z,40.10
2018-12-16T07:47:32.305Z,43.20
2018-12-16T07:48:32.266Z,37.60
2018-12-16T07:49:32.248Z,42.50
2018-12-16T07:50:32.207Z,43.00
2018-12-16T07:51:32.179Z,40.10
2018-12-16T07:52:32.151Z,41.10
2018-12-16T07:53:32.141Z,39.20
2018-12-16T07:54:32.091Z,43.30
2018-12-16T07:55:32.067Z,39.30
2018-12-16T07:56:32.048Z,41.30
2018-12-16T07:57:32.004Z,41.50
2018-12-16T07:58:32.005Z,41.20
2018-12-16T07:59:31.953Z,39.60
2018-12-16T08:00:31.989Z,42.70
2018-12-16T08:01:31.920Z,43.50
2018-12-16T08:02:31.856Z,40.20
2018-12-16T08:03:31.826Z,43.30
2018-12-16T08:04:31.802Z,42.10
2018-12-16T08:05:31.769Z,42.20
2018-12-16T08:06:31.739Z,43.70
2018-12-16T08:07:31.709Z,43.10
2018-12-16T08:08:31.685Z,44.10
2018-12-16T08:09:31.654Z,44.00
2018-12-16T08:10:31.626Z,41.70
2018-12-16T08:11:31.599Z,40.00
2018-12-16T08:12:31.563Z,38.90
2018-12-16T08:13:31.586Z,44.50
2018-12-16T08:14:31.506Z,44.20
2018-12-16T08:15:31.486Z,41.90
2018-12-16T08:16:31.448Z,42.60
2018-12-16T08:17:31.423Z,39.30
2018-12-16T08:18:31.717Z,39.70
2018-12-16T08:19:31.361Z,44.50
2018-12-16T08:20:31.649Z,43.60
2018-12-16T08:21:31.629Z,41.30
2018-12-16T08:22:31.601Z,42.80
2018-12-16T08:23:31.276Z,44.10
2018-12-16T08:24:31.214Z,44.50
2018-12-16T08:25:31.193Z,40.90
2018-12-16T08:26:31.166Z,40.70
2018-12-16T08:27:31.129Z,42.20
2018-12-16T08:28:31.106Z,44.80
2018-12-16T08:29:31.077Z,43.10
2018-12-16T08:30:31.047Z,38.30
2018-12-16T08:31:31.011Z,40.90
2018-12-16T08:32:30.989Z,43.40
2018-12-16T08:33:30.965Z,39.00
2018-12-16T08:34:30.933Z,40.40
2018-12-16T08:35:30.916Z,43.20
2018-12-16T08:36:30.869Z,41.20
2018-12-16T08:37:31.199Z,40.80
2018-12-16T08:38:30.812Z,39.80
2018-12-16T08:39:31.519Z,43.10
2018-12-16T08:40:31.066Z,41.10
2018-12-16T08:41:30.727Z,43.20
2018-12-16T08:42:31.021Z,43.90
2018-12-16T08:43:30.659Z,41.70
2018-12-16T08:44:30.643Z,41.10
2018-12-16T08:45:30.633Z,40.70
2018-12-16T08:46:30.577Z,41.90
2018-12-16T08:47:33.265Z,40.40
2018-12-16T08:48:30.538Z,40.90
2018-12-16T08:49:30.839Z,42.00
2018-12-16T08:50:30.464Z,41.20
2018-12-16T08:51:30.440Z,39.40
2018-12-16T08:52:30.418Z,40.40
2018-12-16T08:53:30.374Z,40.10
2018-12-16T08:54:30.420Z,37.30
2018-12-16T08:55:30.313Z,42.40
2018-12-16T08:56:30.303Z,41.80
2018-12-16T08:57:30.268Z,40.30
2018-12-16T08:58:30.236Z,39.90
2018-12-16T08:59:30.245Z,39.30
2018-12-16T09:00:30.198Z,42.90
2018-12-16T09:01:30.185Z,41.60
2018-12-16T09:02:30.154Z,42.50
2018-12-16T09:03:30.102Z,40.70
2018-12-16T09:04:30.084Z,38.30
2018-12-16T09:05:30.059Z,40.90
2018-12-16T09:06:30.325Z,39.00
2018-12-16T09:08:29.993Z,41.70
2018-12-16T09:09:30.148Z,44.90
2018-12-16T09:10:34.175Z,41.80
2018-12-16T09:11:29.868Z,44.60
2018-12-16T09:12:30.429Z,40.80
2018-12-16T09:13:30.401Z,38.40
2018-12-16T09:14:29.767Z,42.40
2018-12-16T09:15:29.752Z,43.70
2018-12-16T09:16:29.713Z,43.90
2018-12-16T09:17:29.998Z,43.30
2018-12-16T09:18:29.977Z,42.00
2018-12-16T09:19:29.845Z,42.00
2018-12-16T09:20:30.504Z,43.80
2018-12-16T09:21:29.564Z,44.20
2018-12-16T09:22:29.737Z,44.80
2018-12-16T09:23:29.810Z,46.80
2018-12-16T09:24:29.504Z,40.60
2018-12-16T09:25:29.464Z,39.20
2018-12-16T09:26:29.440Z,39.90
2018-12-16T09:27:29.720Z,43.20
2018-12-16T09:28:29.590Z,50.00
2018-12-16T09:29:29.648Z,42.70
2018-12-16T09:30:29.316Z,43.10
2018-12-16T09:31:29.275Z,47.00
2018-12-16T09:32:29.245Z,46.00
2018-12-16T09:33:29.227Z,44.70
2018-12-16T09:34:29.191Z,46.90
2018-12-16T09:35:29.160Z,45.20
2018-12-16T09:36:29.132Z,44.20
2018-12-16T09:37:29.109Z,42.90
2018-12-16T09:38:29.082Z,46.40
2018-12-16T09:39:29.043Z,48.50
2018-12-16T09:40:29.022Z,49.30
2018-12-16T09:41:28.992Z,48.10
2018-12-16T09:42:28.957Z,48.30
2018-12-16T09:43:28.930Z,45.70
2018-12-16T09:44:28.898Z,49.10
2018-12-16T09:45:28.871Z,45.60
2018-12-16T09:46:30.046Z,47.10
2018-12-16T09:47:28.828Z,50.50
2018-12-16T09:48:28.797Z,45.80
2018-12-16T09:49:28.759Z,47.20
2018-12-16T09:50:29.043Z,45.20
2018-12-16T09:51:28.700Z,47.10
2018-12-16T09:52:28.671Z,47.60
2018-12-16T09:53:28.647Z,44.60
2018-12-16T09:54:28.621Z,43.80
2018-12-16T09:55:28.588Z,45.80
2018-12-16T09:56:28.577Z,44.00
2018-12-16T09:57:28.976Z,46.70
2018-12-16T09:58:28.823Z,42.90
2018-12-16T09:59:28.488Z,43.10
2018-12-16T10:00:28.653Z,42.10
2018-12-16T10:01:28.477Z,47.30
2018-12-16T10:02:28.400Z,42.30
2018-12-16T10:04:28.532Z,46.40
2018-12-16T10:05:28.601Z,44.00
2018-12-16T10:06:28.307Z,46.40
2018-12-16T10:07:28.785Z,46.20
2018-12-16T10:08:28.233Z,44.30
2018-12-16T10:09:28.195Z,44.40
2018-12-16T10:10:28.185Z,41.80
2018-12-16T10:11:28.833Z,44.50
2018-12-16T10:12:28.119Z,43.20
2018-12-16T10:13:28.074Z,48.10
2018-12-16T10:14:28.053Z,41.50
2018-12-16T10:15:29.210Z,38.70
2018-12-16T10:16:28.004Z,45.20
2018-12-16T10:17:27.965Z,44.80
2018-12-16T10:18:27.928Z,44.20
2018-12-16T10:19:28.102Z,45.00
2018-12-16T10:21:28.049Z,44.20
2018-12-16T10:22:28.017Z,44.90
2018-12-16T10:23:27.796Z,47.90
2018-12-16T10:24:27.961Z,44.90
2018-12-16T10:25:27.766Z,45.60
2018-12-16T10:26:27.925Z,45.00
2018-12-16T10:27:27.994Z,45.90
2018-12-16T10:28:28.573Z,43.70
2018-12-16T10:29:27.814Z,44.90
2018-12-16T10:30:27.816Z,42.40
2018-12-16T10:32:27.845Z,43.60
2018-12-16T10:33:27.507Z,44.70
2018-12-16T10:34:27.483Z,41.50
2018-12-16T10:35:27.484Z,45.30
2018-12-16T10:36:27.421Z,40.60
2018-12-16T10:37:27.384Z,43.80
2018-12-16T10:38:27.413Z,40.60
2018-12-16T10:39:27.328Z,45.70
2018-12-16T10:40:27.299Z,44.20
2018-12-16T10:41:27.302Z,44.40
2018-12-16T10:43:27.576Z,41.20
2018-12-16T10:44:27.945Z,41.40
2018-12-16T10:45:27.177Z,44.00
2018-12-16T10:46:27.159Z,45.90
2018-12-16T10:47:27.105Z,44.10
2018-12-16T10:48:27.302Z,44.50
2018-12-16T10:49:27.061Z,41.30
2018-12-16T10:50:27.026Z,44.20
2018-12-16T10:51:27.715Z,44.60
2018-12-16T10:52:26.966Z,45.90
2018-12-16T10:53:27.581Z,43.30
2018-12-16T10:54:26.936Z,43.60
2018-12-16T10:55:27.489Z,46.30
2018-12-16T10:56:26.856Z,44.20
2018-12-16T10:57:27.149Z,46.60
2018-12-16T10:58:27.094Z,46.60
2018-12-16T10:59:26.766Z,45.30
2018-12-16T11:01:27.046Z,43.10
2018-12-16T11:02:26.693Z,45.20
2018-12-16T11:03:26.656Z,42.90
2018-12-16T11:04:27.359Z,46.60
2018-12-16T11:05:26.600Z,44.00
2018-12-16T11:06:27.091Z,46.90
2018-12-16T11:07:27.963Z,44.70
2018-12-16T11:10:26.498Z,45.20
2018-12-16T11:11:26.466Z,45.00
2018-12-16T11:13:26.873Z,43.50
2018-12-16T11:14:27.068Z,44.20
2018-12-16T11:15:26.325Z,45.20
2018-12-16T11:16:26.299Z,45.30
2018-12-16T11:17:26.278Z,44.40
2018-12-16T11:18:26.226Z,46.20
2018-12-16T11:19:26.197Z,45.10
2018-12-16T11:20:26.184Z,44.80
2018-12-16T11:21:26.160Z,47.60
2018-12-16T11:22:26.122Z,41.60
2018-12-16T11:27:53.651Z,47.90
2018-12-16T11:28:53.403Z,46.80
2018-12-16T11:29:53.382Z,48.20
2018-12-16T11:30:53.668Z,46.70
2018-12-16T11:31:53.340Z,45.90
2018-12-16T11:32:53.302Z,44.00
2018-12-16T11:33:54.687Z,46.10
2018-12-16T11:34:53.226Z,43.50
2018-12-16T11:35:53.526Z,42.80
2018-12-16T11:36:53.495Z,47.00
2018-12-16T11:37:53.160Z,42.50
2018-12-16T11:38:53.120Z,45.80
2018-12-16T11:39:54.517Z,48.20
2018-12-16T11:40:54.398Z,45.00
2018-12-16T11:41:53.243Z,46.50
2018-12-16T11:42:53.016Z,47.30
2018-12-16T11:44:52.972Z,43.70
2018-12-16T11:47:53.196Z,47.50
2018-12-16T11:48:53.156Z,46.30
2018-12-16T11:49:52.841Z,43.80
2018-12-16T11:50:52.779Z,42.70
2018-12-16T11:51:53.411Z,43.00
2018-12-16T11:52:52.759Z,43.70
2018-12-16T11:53:52.719Z,40.40
2018-12-16T11:54:52.667Z,43.00
2018-12-16T11:55:52.792Z,41.30
2018-12-16T11:56:52.623Z,47.50
2018-12-16T11:57:52.587Z,44.30
2018-12-16T11:58:52.663Z,40.70
2018-12-16T11:59:52.556Z,43.30
2018-12-16T12:00:52.709Z,43.80
2018-12-16T12:01:52.521Z,43.40
2018-12-16T12:02:52.770Z,43.00
2018-12-16T12:03:52.745Z,47.80
2018-12-16T12:05:52.564Z,42.60
2018-12-16T12:08:52.314Z,42.80
2018-12-16T12:09:52.252Z,44.20
2018-12-16T12:11:52.405Z,43.70
2018-12-16T12:12:52.163Z,41.80
2018-12-16T12:13:52.137Z,44.30
2018-12-16T12:14:52.124Z,47.90
2018-12-16T12:15:52.178Z,43.70
2018-12-16T12:16:52.052Z,44.20
2018-12-16T12:17:52.024Z,44.40
2018-12-16T12:18:52.009Z,49.30
2018-12-16T12:19:51.975Z,47.30
2018-12-16T12:20:51.942Z,45.40
2018-12-16T12:21:52.423Z,46.10
2018-12-16T12:22:52.419Z,46.30
2018-12-16T12:23:51.868Z,49.00
2018-12-16T12:24:52.037Z,45.10
2018-12-16T12:27:51.777Z,44.10
2018-12-16T12:28:51.733Z,48.70
2018-12-16T12:29:52.024Z,45.40
2018-12-16T12:30:51.687Z,41.90
2018-12-16T12:32:51.954Z,43.00
2018-12-16T12:33:51.827Z,46.90
2018-12-16T12:34:51.760Z,46.60
2018-12-16T12:35:51.533Z,46.30
2018-12-16T12:36:51.495Z,47.50
2018-12-16T12:37:52.075Z,45.70
2018-12-16T12:38:51.951Z,46.40
2018-12-16T12:39:51.442Z,46.00
2018-12-16T12:40:51.385Z,43.60
2018-12-16T12:41:51.363Z,49.10
2018-12-16T12:42:51.327Z,47.30
2018-12-16T12:43:51.494Z,43.90
2018-12-16T12:44:51.467Z,45.00
2018-12-16T12:45:51.316Z,46.70
2018-12-16T12:46:51.520Z,46.50
2018-12-16T12:47:51.189Z,42.10
2018-12-16T12:48:51.187Z,45.70
2018-12-16T12:49:51.137Z,42.40
2018-12-16T12:50:51.116Z,42.00
2018-12-16T12:51:51.089Z,44.90
2018-12-16T12:52:51.066Z,43.80
2018-12-16T12:53:51.019Z,46.80
2018-12-16T12:54:51.727Z,45.70
2018-12-16T12:55:50.966Z,46.10
2018-12-16T12:56:51.291Z,44.50
2018-12-16T12:57:50.915Z,47.80
2018-12-16T12:58:51.084Z,43.10
2018-12-16T12:59:50.864Z,42.10
2018-12-16T13:00:50.842Z,45.90
2018-12-16T13:01:50.999Z,47.10
2018-12-16T13:02:50.780Z,45.90
2018-12-16T13:03:50.743Z,46.30
2018-12-16T13:04:50.708Z,45.10
2018-12-16T13:05:50.697Z,43.50
2018-12-16T13:06:50.657Z,47.00
2018-12-16T13:07:50.635Z,45.90
2018-12-16T13:08:50.623Z,42.70
2018-12-16T13:09:50.575Z,40.80
2018-12-16T13:10:50.552Z,43.90
2018-12-16T13:11:50.514Z,44.20
2018-12-16T13:12:50.496Z,45.50
2018-12-16T13:13:50.469Z,47.40
2018-12-16T13:14:50.849Z,43.90
2018-12-16T13:15:51.127Z,45.00
2018-12-16T13:16:50.411Z,46.60
2018-12-16T13:17:50.355Z,46.10
2018-12-16T13:18:50.320Z,45.00
2018-12-16T13:19:50.296Z,47.00
2018-12-16T13:20:50.280Z,44.10
2018-12-16T13:21:50.572Z,47.70